Time;durP1;ratioP1;P1;durP2;ratioP2;P2;SDS_P1;SDS_P2;PMS_P1;PMS_P2;Temp;Humidity;BMP_temperature;BMP_pressure;BME280_temperature;BME280_humidity;BME280_pressure;Samples;Min_cycle;Max_cycle;Signal;HPM_P1;HPM_P2
2022/01/17 00:00:12;;;;;;;25.00;5.30;;;;;;;4.50;92.02;101212.53;5006762;28;20021;-75
2022/01/17 00:02:39;;;;;;;24.20;3.28;;;;;;;4.48;91.97;101195.91;5006857;28;20184;-75
2022/01/17 00:05:06;;;;;;;13.55;3.15;;;;;;;4.50;92.14;101196.66;5006168;28;20056;-75
2022/01/17 00:07:32;;;;;;;17.52;3.47;;;;;;;4.53;92.42;101180.56;4982120;28;20396;-76
2022/01/17 00:09:58;;;;;;;25.15;3.60;;;;;;;4.49;92.38;101192.31;4999503;28;20099;-76
2022/01/17 00:12:24;;;;;;;24.88;4.03;;;;;;;4.54;92.48;101187.53;4999392;28;20042;-75
2022/01/17 00:14:50;;;;;;;22.80;3.35;;;;;;;4.63;92.15;101192.13;4991234;28;20479;-77
2022/01/17 00:19:44;;;;;;;21.27;3.73;;;;;;;4.72;91.98;101200.34;5008778;28;20040;-74
2022/01/17 00:22:11;;;;;;;25.08;4.80;;;;;;;4.74;91.68;101194.00;5007728;28;20499;-76
2022/01/17 00:24:37;;;;;;;17.90;3.75;;;;;;;4.79;91.61;101189.19;5008340;28;20030;-75
2022/01/17 00:27:03;;;;;;;23.63;2.90;;;;;;;4.76;91.41;101178.03;5007860;28;20043;-75
2022/01/17 00:29:30;;;;;;;16.58;2.65;;;;;;;4.80;91.49;101201.50;5024248;28;20555;-76
2022/01/17 00:31:56;;;;;;;25.77;3.07;;;;;;;4.77;91.30;101180.53;5007601;28;20038;-75
2022/01/17 00:34:22;;;;;;;26.85;3.83;;;;;;;4.79;91.74;101204.25;5008396;28;20038;-75
2022/01/17 00:36:47;;;;;;;23.45;4.82;;;;;;;4.79;91.95;101201.59;5023595;28;20037;-76
2022/01/17 00:39:12;;;;;;;18.80;3.00;;;;;;;4.81;92.30;101207.63;5007072;28;20044;-75
2022/01/17 00:41:38;;;;;;;14.27;2.40;;;;;;;4.79;92.57;101213.00;5007170;28;20021;-76
2022/01/17 00:44:04;;;;;;;25.73;3.80;;;;;;;4.81;92.80;101223.50;5006771;28;20494;-75
2022/01/17 00:46:30;;;;;;;18.63;3.10;;;;;;;4.79;92.76;101228.03;4991072;28;20332;-76
2022/01/17 00:48:56;;;;;;;23.40;4.18;;;;;;;4.75;93.14;101234.50;5006351;28;20029;-76
2022/01/17 00:51:21;;;;;;;17.87;3.40;;;;;;;4.72;93.56;101234.75;4982355;28;20499;-75
2022/01/17 00:53:47;;;;;;;22.23;3.65;;;;;;;4.79;93.61;101210.38;5022831;28;20797;-75
2022/01/17 00:56:13;;;;;;;23.25;4.25;;;;;;;4.84;93.37;101233.84;5008119;28;20033;-75
2022/01/17 00:58:38;;;;;;;23.80;4.03;;;;;;;4.84;93.36;101239.97;5007102;28;20537;-74
2022/01/17 01:01:03;;;;;;;19.73;3.47;;;;;;;4.86;93.31;101227.47;5023596;28;20535;-75
2022/01/17 01:03:29;;;;;;;24.93;5.43;;;;;;;4.86;93.23;101227.47;4990794;28;20631;-78
2022/01/17 01:05:54;;;;;;;17.43;3.93;;;;;;;4.83;93.44;101227.72;5006670;28;20470;-78
2022/01/17 01:08:19;;;;;;;27.20;3.73;;;;;;;4.89;93.22;101229.03;5011240;28;20053;-77
2022/01/17 01:10:45;;;;;;;21.13;3.07;;;;;;;4.91;93.15;101218.34;5009495;28;20026;-77
2022/01/17 01:13:10;;;;;;;22.37;3.10;;;;;;;4.85;93.25;101222.31;5012583;28;20396;-76
2022/01/17 01:18:14;;;;;;;25.10;4.18;;;;;;;4.94;93.37;101228.69;5009630;28;20029;-75
2022/01/17 01:28:35;;;;;;;19.40;2.80;;;;;;;4.89;93.82;101231.69;5012385;28;20122;-75
2022/01/17 01:31:03;;;;;;;21.93;3.67;;;;;;;4.91;94.04;101240.34;5027705;28;20163;-75
2022/01/17 01:33:33;;;;;;;24.13;4.13;;;;;;;4.96;94.12;101238.22;5016130;28;20061;-78
2022/01/17 01:36:04;;;;;;;28.80;5.50;;;;;;;4.92;94.15;101242.06;5010867;28;20041;-75
2022/01/17 01:38:30;;;;;;;21.40;4.07;;;;;;;4.95;94.35;101241.00;5011117;28;20502;-77
2022/01/17 01:40:55;;;;;;;21.42;5.53;;;;;;;4.91;94.32;101229.78;5004234;28;20028;-76
2022/01/17 01:43:21;;;;;;;26.13;4.80;;;;;;;4.91;94.33;101200.66;5010850;28;20042;-75
2022/01/17 01:45:48;;;;;;;14.68;3.35;;;;;;;4.99;94.29;101218.66;5011828;28;20289;-75
2022/01/17 01:48:14;;;;;;;18.90;3.45;;;;;;;4.97;94.11;101205.50;5010790;28;20057;-75
2022/01/17 01:50:39;;;;;;;25.23;4.05;;;;;;;4.97;94.02;101197.56;5027146;28;20415;-77
2022/01/17 01:53:05;;;;;;;30.95;4.10;;;;;;;5.03;93.67;101197.13;5010775;28;20069;-75
2022/01/17 01:55:30;;;;;;;16.97;3.17;;;;;;;5.04;93.05;101196.16;5010514;28;20109;-75
2022/01/17 01:57:57;;;;;;;32.72;3.55;;;;;;;5.07;93.06;101195.91;5010665;28;20044;-75
2022/01/17 02:00:22;;;;;;;27.13;4.50;;;;;;;5.15;92.54;101176.81;5010287;28;20120;-75
2022/01/17 02:02:48;;;;;;;30.98;4.72;;;;;;;5.19;92.55;101175.59;5010680;28;20527;-77
2022/01/17 02:05:13;;;;;;;28.30;4.72;;;;;;;5.19;92.04;101164.19;5026894;28;20117;-74
2022/01/17 02:07:42;;;;;;;49.03;5.13;;;;;;;5.16;92.04;101151.19;5010608;28;20111;-76
2022/01/17 02:10:08;;;;;;;28.13;4.40;;;;;;;5.18;92.04;101150.13;5027179;28;20014;-75
2022/01/17 02:12:34;;;;;;;46.30;5.43;;;;;;;5.13;92.10;101130.22;5027067;28;20897;-76
2022/01/17 02:14:59;;;;;;;20.67;3.43;;;;;;;5.15;92.10;101130.97;4993482;28;20045;-77
2022/01/17 02:17:26;;;;;;;18.75;4.80;;;;;;;5.18;92.24;101146.63;5010063;28;20034;-74
2022/01/17 02:20:07;;;;;;;20.05;4.20;;;;;;;5.20;92.29;101150.84;5023331;28;20049;-76
2022/01/17 02:22:33;;;;;;;26.25;5.70;;;;;;;5.13;92.36;101146.97;5010667;28;20208;-75
2022/01/17 02:24:59;;;;;;;34.95;6.15;;;;;;;5.23;92.52;101155.06;4993561;28;20014;-76
2022/01/17 02:27:25;;;;;;;29.35;4.78;;;;;;;5.22;92.78;101133.03;5010251;28;20131;-77
2022/01/17 02:29:51;;;;;;;17.95;4.75;;;;;;;5.25;92.77;101124.00;5010151;28;20057;-75
2022/01/17 02:32:16;;;;;;;15.75;3.05;;;;;;;5.25;93.17;101126.66;4993700;28;20510;-75
2022/01/17 02:34:42;;;;;;;19.53;4.70;;;;;;;5.22;93.38;101116.28;5009333;28;20041;-76
2022/01/17 02:37:09;;;;;;;;;;;;;;;5.28;93.48;101129.06;5010816;28;20123;-75
2022/01/17 02:39:34;;;;;;;22.95;4.60;;;;;;;5.31;93.32;101126.16;5010026;28;20060;-77
2022/01/17 02:42:02;;;;;;;14.53;4.67;;;;;;;5.27;93.66;101116.81;5010945;28;20096;-76
2022/01/17 02:44:27;;;;;;;40.78;4.55;;;;;;;5.34;93.83;101125.09;4997634;28;20030;-76
2022/01/17 02:46:53;;;;;;;19.35;4.35;;;;;;;5.35;93.53;101097.66;5016978;28;20040;-75
2022/01/17 02:49:18;;;;;;;13.93;3.30;;;;;;;5.31;93.87;101096.22;4993388;28;20056;-75
2022/01/17 02:51:48;;;;;;;19.73;3.87;;;;;;;5.28;93.95;101113.19;5001648;28;20108;-75
2022/01/17 02:54:13;;;;;;;18.13;3.55;;;;;;;5.34;94.13;101119.78;5009175;28;20034;-75
2022/01/17 02:56:39;;;;;;;20.95;3.35;;;;;;;5.33;94.22;101113.66;4984661;28;20075;-76
2022/01/17 02:59:04;;;;;;;16.57;3.40;;;;;;;5.40;94.38;101136.03;5007073;28;20026;-76
2022/01/17 03:01:30;;;;;;;17.42;3.22;;;;;;;5.40;94.25;101141.34;4992734;28;20706;-75
2022/01/17 03:03:57;;;;;;;25.43;3.97;;;;;;;5.37;94.32;101131.00;5009942;28;20033;-75
2022/01/17 03:06:23;;;;;;;27.98;4.68;;;;;;;5.41;94.48;101150.16;5009241;28;20412;-75
2022/01/17 03:08:50;;;;;;;29.90;5.40;;;;;;;5.37;94.62;101149.53;5041572;28;20036;-75
2022/01/17 03:11:19;;;;;;;21.10;3.95;;;;;;;5.40;94.68;101156.41;5010420;28;20553;-76
2022/01/17 03:13:47;;;;;;;19.98;3.47;;;;;;;5.50;94.78;101181.19;5025480;28;20049;-77
2022/01/17 03:16:15;;;;;;;21.40;3.83;;;;;;;5.51;94.41;101143.16;4992784;28;20104;-74
2022/01/17 03:18:46;;;;;;;19.15;3.83;;;;;;;5.52;94.60;101171.31;5005046;28;20037;-76
2022/01/17 03:21:15;;;;;;;18.73;3.15;;;;;;;5.49;94.37;101139.78;5008949;28;20419;-75
2022/01/17 03:23:41;;;;;;;21.63;5.28;;;;;;;5.54;94.52;101163.28;5008486;28;20026;-78
2022/01/17 03:26:07;;;;;;;16.63;4.10;;;;;;;5.62;94.33;101166.16;5025633;28;20513;-75
2022/01/17 03:28:33;;;;;;;;;;;;;;;5.63;94.32;101162.56;5021930;28;20113;-75
2022/01/17 03:31:01;;;;;;;26.08;4.88;;;;;;;5.58;94.36;101143.53;4991985;28;20024;-76
2022/01/17 03:33:27;;;;;;;14.07;2.75;;;;;;;5.61;94.53;101153.88;4992401;28;20037;-79
2022/01/17 03:35:53;;;;;;;19.80;3.95;;;;;;;5.59;94.60;101139.91;5044946;22;20038;-77
2022/01/17 03:38:22;;;;;;;29.92;3.72;;;;;;;5.56;94.66;101135.69;5003657;28;20403;-77
2022/01/17 03:40:50;;;;;;;24.55;4.57;;;;;;;5.56;94.90;101150.75;4997746;28;20144;-77
2022/01/17 03:43:16;;;;;;;20.40;3.00;;;;;;;5.60;94.89;101136.31;5003317;28;20097;-77
2022/01/17 03:45:42;;;;;;;15.68;3.55;;;;;;;5.63;95.03;101163.38;5003309;28;20022;-74
2022/01/17 03:48:07;;;;;;;21.65;4.53;;;;;;;5.62;95.21;101124.63;4998444;28;20404;-74
2022/01/17 03:50:33;;;;;;;14.80;3.20;;;;;;;5.66;95.37;101162.31;5014173;28;20033;-74
2022/01/17 03:52:58;;;;;;;21.17;3.93;;;;;;;5.63;95.79;101157.25;4995253;28;20470;-74
2022/01/17 03:55:24;;;;;;;20.77;4.00;;;;;;;5.63;96.00;101165.19;4995753;28;20073;-74
2022/01/17 03:57:50;;;;;;;14.95;3.38;;;;;;;5.61;96.69;101153.88;5005875;28;20041;-75
2022/01/17 04:00:27;;;;;;;24.45;3.47;;;;;;;5.53;97.38;101157.13;5006101;28;20022;-74
2022/01/17 04:02:54;;;;;;;13.73;2.92;;;;;;;5.49;98.11;101172.41;5001777;28;20119;-75
2022/01/17 04:05:20;;;;;;;22.40;3.33;;;;;;;5.47;98.85;101153.13;4994322;28;20042;-75
2022/01/17 04:07:46;;;;;;;26.73;4.22;;;;;;;5.51;99.33;101174.94;4995847;28;20400;-74
2022/01/17 04:10:13;;;;;;;21.50;3.03;;;;;;;5.52;99.54;101170.50;5022537;28;20121;-75
2022/01/17 04:12:39;;;;;;;24.42;4.07;;;;;;;5.55;99.72;101165.81;5014033;28;20677;-75
2022/01/17 04:15:06;;;;;;;12.68;3.03;;;;;;;5.55;100.00;101165.81;5006705;28;20108;-76
2022/01/17 04:17:32;;;;;;;18.00;2.83;;;;;;;5.58;100.00;101180.63;4997566;28;20407;-74
2022/01/17 04:20:05;;;;;;;22.00;4.43;;;;;;;5.54;100.00;101173.88;5013991;28;20076;-74
2022/01/17 04:22:35;;;;;;;20.27;3.92;;;;;;;5.55;100.00;101183.47;5013965;28;20491;-74
2022/01/17 04:25:00;;;;;;;20.25;2.60;;;;;;;5.49;100.00;101172.41;4995438;28;20038;-75
2022/01/17 04:27:26;;;;;;;18.85;4.43;;;;;;;5.54;100.00;101169.41;4995756;28;20472;-74
2022/01/17 04:29:51;;;;;;;18.17;4.27;;;;;;;5.43;100.00;101172.91;4997277;28;20089;-75
2022/01/17 04:32:17;;;;;;;20.53;4.00;;;;;;;5.39;100.00;101189.97;4997752;28;20021;-74
2022/01/17 04:34:42;;;;;;;20.98;3.25;;;;;;;5.36;100.00;101187.59;4996346;28;20495;-75
2022/01/17 04:37:09;;;;;;;21.97;4.17;;;;;;;5.32;100.00;101159.63;4994189;28;20557;-75
2022/01/17 04:39:35;;;;;;;15.88;4.32;;;;;;;5.30;100.00;101193.34;4994510;28;20042;-76
2022/01/17 04:42:02;;;;;;;24.90;3.92;;;;;;;5.32;100.00;101191.41;4996912;28;20064;-75
2022/01/17 04:47:11;;;;;;;28.95;3.97;;;;;;;5.33;100.00;101177.19;4995298;28;20069;-76
2022/01/17 04:49:37;;;;;;;27.43;3.67;;;;;;;5.36;100.00;101192.00;4995406;28;20030;-75
2022/01/17 04:52:02;;;;;;;20.80;3.13;;;;;;;5.39;100.00;101208.50;4997542;28;20503;-75
2022/01/17 04:56:56;;;;;;;27.85;4.15;;;;;;;5.39;100.00;101216.47;5010690;28;20045;-75
2022/01/17 04:59:21;;;;;;;32.90;4.63;;;;;;;5.50;100.00;101235.03;4995152;28;20034;-75
2022/01/17 05:01:47;;;;;;;20.87;3.87;;;;;;;5.50;100.00;101232.38;4994115;28;20065;-75
2022/01/17 05:04:12;;;;;;;19.80;3.97;;;;;;;5.57;100.00;101234.53;5006244;28;20026;-78
2022/01/17 05:06:38;;;;;;;40.70;7.77;;;;;;;5.60;100.00;101226.38;4998083;28;20033;-78
2022/01/17 05:09:04;;;;;;;22.77;4.60;;;;;;;5.66;100.00;101253.22;4994163;28;20642;-76
2022/01/17 05:11:30;;;;;;;19.40;3.20;;;;;;;5.56;100.00;101230.22;4995382;28;20088;-76
2022/01/17 05:13:56;;;;;;;22.17;3.10;;;;;;;5.64;100.00;101251.63;4997443;28;20042;-75
2022/01/17 05:16:29;;;;;;;34.97;4.65;;;;;;;5.74;100.00;101247.34;5021553;28;20038;-75
2022/01/17 05:21:38;;;;;;;24.15;4.45;;;;;;;5.74;100.00;101233.25;5010795;28;20522;-78
2022/01/17 05:24:04;;;;;;;12.57;3.23;;;;;;;5.74;100.00;101247.34;4996893;28;20026;-77
2022/01/17 05:26:29;;;;;;;22.65;3.78;;;;;;;5.77;100.00;101233.84;4998860;28;20392;-76
2022/01/17 05:28:55;;;;;;;18.57;4.30;;;;;;;5.80;100.00;101260.09;4987944;28;20041;-76
2022/01/17 05:31:20;;;;;;;15.57;3.70;;;;;;;5.70;100.00;101249.38;5003964;28;20030;-76
2022/01/17 05:33:45;;;;;;;26.00;6.13;;;;;;;5.72;100.00;101259.84;4995918;28;20461;-76
2022/01/17 05:36:11;;;;;;;20.00;3.30;;;;;;;5.76;100.00;101276.34;4998724;28;20033;-80
2022/01/17 05:38:36;;;;;;;23.63;4.63;;;;;;;5.68;100.00;101261.03;5002065;28;20083;-79
2022/01/17 05:41:01;;;;;;;22.73;3.33;;;;;;;5.71;100.00;101269.63;4998706;28;20037;-77
2022/01/17 05:43:27;;;;;;;16.70;3.03;;;;;;;5.64;100.00;101254.28;4999813;28;20105;-77
2022/01/17 05:45:52;;;;;;;32.60;3.83;;;;;;;5.62;100.00;101254.44;4997002;28;20035;-76
2022/01/17 05:48:17;;;;;;;27.07;5.03;;;;;;;5.58;100.00;101246.84;5012093;28;20036;-76
2022/01/17 05:50:43;;;;;;;15.90;3.23;;;;;;;5.58;100.00;101236.25;5001584;28;20890;-75
2022/01/17 05:53:10;;;;;;;22.83;3.60;;;;;;;5.61;100.00;101263.31;5003185;28;20183;-75
2022/01/17 05:55:35;;;;;;;21.45;4.78;;;;;;;5.57;100.00;101267.19;5012721;28;20034;-77
2022/01/17 05:58:02;;;;;;;20.70;3.70;;;;;;;5.57;100.00;101287.50;5001290;28;20030;-75
2022/01/17 06:00:27;;;;;;;24.05;3.83;;;;;;;5.57;100.00;101288.38;5000787;28;20117;-77
2022/01/17 06:02:53;;;;;;;17.47;3.50;;;;;;;5.70;100.00;101293.56;4999145;28;20201;-75
2022/01/17 06:05:18;;;;;;;24.97;3.30;;;;;;;5.64;100.00;101283.44;5000714;28;20854;-75
2022/01/17 06:07:44;;;;;;;16.37;3.90;;;;;;;5.72;100.00;101275.75;5016461;28;20034;-78
2022/01/17 06:10:09;;;;;;;11.80;2.75;;;;;;;5.75;100.00;101264.91;4999995;28;20089;-76
2022/01/17 06:12:35;;;;;;;21.23;4.00;;;;;;;5.76;100.00;101287.81;5000005;28;20100;-75
2022/01/17 06:15:01;;;;;;;16.02;3.10;;;;;;;5.74;100.00;101288.91;4995950;28;20736;-75
2022/01/17 06:17:26;;;;;;;15.57;4.10;;;;;;;5.78;100.00;101328.25;5019929;28;20072;-74
2022/01/17 06:19:52;;;;;;;21.90;3.93;;;;;;;5.77;100.00;101325.75;5003462;28;20030;-75
2022/01/17 06:22:17;;;;;;;18.52;3.65;;;;;;;5.71;100.00;101314.66;4998671;28;20160;-75
2022/01/17 06:24:43;;;;;;;22.67;3.97;;;;;;;5.69;100.00;101310.44;5000549;28;20026;-74
2022/01/17 06:27:08;;;;;;;20.17;3.63;;;;;;;5.76;100.00;101298.41;5015991;28;20041;-76
2022/01/17 06:29:34;;;;;;;23.13;3.65;;;;;;;5.65;100.00;101282.50;5015976;28;20030;-76
2022/01/17 06:31:59;;;;;;;19.30;2.90;;;;;;;5.66;100.00;101292.09;5015838;28;20034;-75
2022/01/17 06:34:24;;;;;;;20.47;2.93;;;;;;;5.61;100.00;101273.91;5000442;28;20038;-76
2022/01/17 06:36:50;;;;;;;20.98;4.03;;;;;;;5.64;100.00;101296.69;4998581;28;20045;-75
2022/01/17 06:39:15;;;;;;;23.73;2.97;;;;;;;5.65;100.00;101314.28;4995938;28;20042;-75
2022/01/17 06:41:41;;;;;;;21.00;4.10;;;;;;;5.68;100.00;101343.19;4996871;28;20031;-75
2022/01/17 06:44:06;;;;;;;23.17;4.27;;;;;;;5.63;100.00;101345.34;5000398;28;20486;-75
2022/01/17 06:46:32;;;;;;;19.08;3.78;;;;;;;5.71;100.00;101357.06;4993422;28;20038;-75
2022/01/17 06:48:57;;;;;;;28.40;4.07;;;;;;;5.73;100.00;101375.47;5019205;28;20034;-75
2022/01/17 06:51:23;;;;;;;22.63;4.30;;;;;;;5.80;100.00;101387.28;5004427;28;20036;-76
2022/01/17 06:53:50;;;;;;;20.33;3.10;;;;;;;5.80;100.00;101374.03;4997185;28;20052;-75
2022/01/17 06:56:16;;;;;;;29.63;4.28;;;;;;;5.86;100.00;101407.19;4996997;28;20426;-75
2022/01/17 06:58:42;;;;;;;26.02;4.07;;;;;;;5.88;100.00;101427.31;5003873;28;20022;-75
2022/01/17 07:01:08;;;;;;;20.17;3.70;;;;;;;5.93;100.00;101441.06;5002686;28;20065;-75
2022/01/17 07:03:34;;;;;;;25.13;4.78;;;;;;;5.90;100.00;101430.69;5000263;28;20057;-75
2022/01/17 07:06:00;;;;;;;24.85;5.10;;;;;;;5.93;100.00;101397.81;5014147;28;20068;-74
2022/01/17 07:08:26;;;;;;;28.58;4.85;;;;;;;5.99;100.00;101396.53;4993147;28;20472;-77
2022/01/17 07:10:52;;;;;;;25.27;4.78;;;;;;;6.03;100.00;101384.72;5002796;28;20089;-76
2022/01/17 07:13:17;;;;;;;26.90;5.57;;;;;;;6.06;100.00;101355.34;4984320;28;20034;-75
2022/01/17 07:15:42;;;;;;;33.97;6.37;;;;;;;6.01;100.00;101358.34;5008099;28;20042;-75
2022/01/17 07:18:08;;;;;;;33.13;5.93;;;;;;;6.00;100.00;101361.97;4974457;28;20033;-75
2022/01/17 07:20:34;;;;;;;37.03;4.97;;;;;;;6.00;100.00;101377.03;4998282;28;20022;-75
2022/01/17 07:23:00;;;;;;;40.90;6.50;;;;;;;5.98;100.00;101365.69;4996501;28;20038;-75
2022/01/17 07:25:25;;;;;;;32.63;6.43;;;;;;;5.98;100.00;101369.19;4996637;28;20077;-75
2022/01/17 07:27:51;;;;;;;22.67;4.63;;;;;;;5.98;100.00;101384.25;5023424;28;20025;-75
2022/01/17 07:30:17;;;;;;;31.97;5.13;;;;;;;5.97;100.00;101403.75;5000807;28;20076;-75
2022/01/17 07:32:43;;;;;;;26.20;4.55;;;;;;;5.95;100.00;101387.09;5004681;28;20309;-75
2022/01/17 07:35:09;;;;;;;28.50;6.28;;;;;;;5.92;100.00;101357.22;4992788;28;20032;-74
2022/01/17 07:37:35;;;;;;;30.42;3.90;;;;;;;5.87;100.00;101393.81;4999593;28;20050;-75
2022/01/17 07:40:00;;;;;;;26.05;4.38;;;;;;;5.91;100.00;101416.47;5014427;28;20065;-75
2022/01/17 07:42:26;;;;;;;28.38;3.88;;;;;;;5.86;100.00;101408.03;5003397;28;20505;-74
2022/01/17 07:44:55;;;;;;;21.47;3.83;;;;;;;5.81;100.00;101399.59;4987689;28;20399;-74
2022/01/17 07:47:38;;;;;;;21.95;5.57;;;;;;;5.87;100.00;101430.06;5004818;28;20048;-75
2022/01/17 07:50:04;;;;;;;16.02;3.42;;;;;;;5.84;100.00;101452.34;5001587;28;20022;-74
2022/01/17 07:52:30;;;;;;;23.48;4.40;;;;;;;5.80;100.00;101434.97;4997554;28;20479;-75
2022/01/17 07:54:55;;;;;;;25.93;4.23;;;;;;;5.88;100.00;101437.91;5013728;28;20044;-74
2022/01/17 07:57:21;;;;;;;16.17;3.33;;;;;;;5.84;100.00;101472.72;4997871;28;20379;-75
2022/01/17 07:59:46;;;;;;;19.13;3.23;;;;;;;5.90;100.00;101499.59;4998859;28;20030;-74
2022/01/17 08:02:11;;;;;;;16.87;3.23;;;;;;;5.88;100.00;101475.03;5000926;28;20038;-74
2022/01/17 08:04:37;;;;;;;8.27;2.60;;;;;;;5.92;100.00;101465.03;5007237;28;20041;-75
2022/01/17 08:07:05;;;;;;;18.80;2.85;;;;;;;5.89;100.00;101476.69;5004304;28;20614;-74
2022/01/17 08:09:31;;;;;;;19.58;3.53;;;;;;;5.89;100.00;101478.50;4997447;28;20042;-75
2022/01/17 08:11:57;;;;;;;15.07;2.22;;;;;;;5.82;100.00;101451.63;5018702;28;20407;-74
2022/01/17 08:14:24;;;;;;;;;;;;;;;5.78;100.00;101451.97;4995642;28;20101;-75
2022/01/17 08:16:50;;;;;;;9.45;2.28;;;;;;;5.87;100.00;101440.66;4992404;28;19917;-75
2022/01/17 08:19:15;;;;;;;7.00;1.45;;;;;;;5.79;100.00;101384.78;4996260;28;20072;-75
2022/01/17 08:21:41;;;;;;;6.70;1.97;;;;;;;5.78;100.00;101421.00;4998453;28;20392;-75
2022/01/17 08:24:06;;;;;;;21.58;2.10;;;;;;;5.70;100.00;101394.25;5012269;28;20092;-76
2022/01/17 08:26:32;;;;;;;11.88;2.33;;;;;;;5.63;100.00;101358.59;4997168;28;20385;-76
2022/01/17 08:28:57;;;;;;;11.35;2.30;;;;;;;5.65;98.85;101361.97;5011807;28;20028;-76
2022/01/17 08:31:23;;;;;;;7.93;1.90;;;;;;;5.58;97.20;101340.38;4995369;28;20881;-76
2022/01/17 08:33:48;;;;;;;9.93;2.23;;;;;;;5.50;96.19;101327.72;4995301;28;20913;-76
2022/01/17 08:36:14;;;;;;;9.13;2.10;;;;;;;5.54;94.99;101314.25;4994053;28;20120;-76
2022/01/17 08:38:40;;;;;;;11.30;1.60;;;;;;;5.57;93.35;101321.94;5002001;28;20080;-77
2022/01/17 08:41:06;;;;;;;7.72;1.70;;;;;;;5.55;92.02;101303.53;4998154;28;20444;-77
2022/01/17 08:43:31;;;;;;;10.00;1.70;;;;;;;5.54;90.85;101258.63;4993512;28;20044;-76
2022/01/17 08:45:57;;;;;;;7.32;1.55;;;;;;;5.61;90.90;101276.56;4998176;28;20034;-76
2022/01/17 08:48:23;;;;;;;13.23;1.60;;;;;;;6.10;89.42;101282.56;5007268;28;20064;-76
2022/01/17 08:50:50;;;;;;;8.40;2.15;;;;;;;6.09;88.34;101272.94;4998485;28;20033;-77
2022/01/17 08:53:17;;;;;;;10.88;1.63;;;;;;;5.97;88.08;101288.00;4998244;28;20061;-77
2022/01/17 08:55:45;;;;;;;9.52;2.63;;;;;;;5.73;87.66;101274.78;5010738;28;20038;-77
2022/01/17 08:58:12;;;;;;;14.95;3.33;;;;;;;5.68;87.13;101251.28;5000643;28;20018;-77
2022/01/17 09:00:38;;;;;;;8.98;1.85;;;;;;;5.68;86.77;101235.41;5007171;28;20030;-77
2022/01/17 09:03:04;;;;;;;19.60;3.08;;;;;;;5.65;86.56;101245.41;4994181;28;20772;-76
2022/01/17 09:05:31;;;;;;;13.90;3.03;;;;;;;5.59;86.71;101251.16;4996768;28;20034;-76
2022/01/17 09:07:57;;;;;;;13.30;2.47;;;;;;;6.00;86.27;101284.25;5010014;28;20766;-76
2022/01/17 09:10:23;;;;;;;11.30;2.83;;;;;;;5.83;85.67;101243.09;5000317;28;20037;-76
2022/01/17 09:12:49;;;;;;;12.35;3.50;;;;;;;5.64;85.81;101249.88;5005424;28;20816;-76
2022/01/17 09:15:14;;;;;;;;;;;;;;;5.63;85.60;101242.03;4998675;28;20125;-76
2022/01/17 09:17:40;;;;;;;;;;;;;;;5.62;84.74;101214.69;5018343;28;20000;-76
2022/01/17 09:20:06;;;;;;;16.07;2.73;;;;;;;5.61;84.45;101207.69;4985195;28;20359;-75
2022/01/17 09:22:32;;;;;;;;;;;;;;;5.60;84.51;101229.03;4993675;28;20038;-75
2022/01/17 09:24:58;;;;;;;17.30;3.00;;;;;;;5.58;84.79;101255.63;5012494;28;19920;-75
2022/01/17 09:27:24;;;;;;;9.73;2.67;;;;;;;5.45;85.28;101276.88;5006251;28;20613;-76
2022/01/17 09:29:49;;;;;;;13.65;2.38;;;;;;;5.33;86.03;101301.66;4999266;28;20125;-75
2022/01/17 09:32:15;;;;;;;16.53;2.50;;;;;;;5.09;88.03;101383.72;4998442;28;20030;-76
2022/01/17 09:34:42;;;;;;;15.23;2.20;;;;;;;4.56;90.42;101452.72;5007048;28;20300;-77
2022/01/17 09:37:10;;;;;;;22.30;1.92;;;;;;;4.12;93.10;101504.19;4999558;28;20105;-77
2022/01/17 09:39:37;;;;;;;14.00;2.58;;;;;;;3.89;95.40;101521.56;4998937;28;20031;-76
2022/01/17 09:42:08;;;;;;;13.70;2.92;;;;;;;3.87;96.85;101567.50;5002575;28;20129;-77
2022/01/17 09:44:34;;;;;;;10.50;2.35;;;;;;;3.91;96.76;101567.22;5003144;28;20030;-77
2022/01/17 09:47:03;;;;;;;13.05;3.45;;;;;;;3.98;96.79;101573.81;4998940;28;20030;-76
2022/01/17 09:52:33;;;;;;;16.05;2.38;;;;;;;4.24;96.39;101602.97;5001849;28;20044;-76
2022/01/17 09:55:16;;;;;;;15.85;4.25;;;;;;;5.66;95.24;101647.94;4997964;28;20178;-76
2022/01/17 09:57:46;;;;;;;19.90;2.75;;;;;;;6.35;92.47;101615.66;5000351;28;20070;-77
2022/01/17 10:00:14;;;;;;;11.70;2.85;;;;;;;6.70;88.80;101514.81;5003223;28;20026;-77
2022/01/17 10:02:40;;;;;;;22.63;4.40;;;;;;;6.58;85.86;101433.53;5006165;28;20380;-77
2022/01/17 10:05:08;;;;;;;;;;;;;;;6.53;83.97;101364.03;5004802;28;20034;-78
2022/01/17 10:07:53;;;;;;;23.73;4.07;;;;;;;6.67;81.82;101333.75;5004523;28;19913;-76
2022/01/17 10:10:40;;;;;;;19.73;4.63;;;;;;;6.69;80.24;101284.91;4997620;28;20042;-76
2022/01/17 10:13:08;;;;;;;17.50;3.65;;;;;;;6.87;77.40;101202.09;5010517;28;20038;-77
2022/01/17 10:15:45;;;;;;;17.13;4.82;;;;;;;6.62;76.14;101121.88;5015605;28;20034;-76
2022/01/17 10:18:42;;;;;;;25.08;4.72;;;;;;;6.99;74.79;101121.44;4997850;28;20085;-77
2022/01/17 10:21:14;;;;;;;21.25;4.05;;;;;;;7.44;73.73;101150.34;4989204;28;20507;-77
2022/01/17 10:24:12;;;;;;;25.55;5.05;;;;;;;6.98;72.30;101013.59;4998863;28;20030;-79
2022/01/17 10:37:16;;;;;;;;;;;;;;;8.08;67.90;100980.78;5009381;28;20117;-76
2022/01/17 10:40:15;;;;;;;23.83;4.45;;;;;;;7.14;67.55;100816.59;5015606;28;20004;-77
2022/01/17 10:42:47;;;;;;;28.63;5.13;;;;;;;7.28;68.71;100935.72;5005307;28;20052;-77
2022/01/17 10:45:28;;;;;;;25.23;6.28;;;;;;;7.01;68.42;100890.34;5001849;28;20025;-76
2022/01/17 10:47:57;;;;;;;22.48;4.25;;;;;;;7.35;67.72;100922.69;5000537;28;20049;-77
2022/01/17 10:50:30;;;;;;;24.02;5.78;;;;;;;7.21;67.46;100865.53;5003663;28;20068;-78
2022/01/17 10:52:58;;;;;;;31.67;5.53;;;;;;;7.68;67.28;100960.50;5001578;28;20048;-76
2022/01/17 10:55:34;;;;;;;28.48;4.53;;;;;;;7.47;66.34;100857.88;4987127;28;20824;-75
2022/01/17 10:58:09;;;;;;;24.30;5.32;;;;;;;7.45;66.70;100906.78;4985270;28;20068;-77
2022/01/17 11:00:41;;;;;;;21.77;4.28;;;;;;;7.10;67.11;100841.75;5016957;28;20100;-76
2022/01/17 11:03:09;;;;;;;31.15;4.50;;;;;;;7.22;67.29;100898.22;5000574;28;20034;-76
2022/01/17 11:05:37;;;;;;;30.60;5.55;;;;;;;7.46;67.05;100969.56;5004023;28;20030;-76
2022/01/17 11:08:02;;;;;;;24.55;5.93;;;;;;;7.45;66.77;100949.31;4999457;28;20057;-77
2022/01/17 11:10:34;;;;;;;28.15;6.30;;;;;;;7.99;66.83;101039.16;4992016;28;20583;-76
2022/01/17 11:13:02;;;;;;;22.10;6.60;;;;;;;7.74;65.79;100902.31;5015028;28;20049;-76
2022/01/17 11:15:32;;;;;;;34.55;4.72;;;;;;;7.53;65.48;100846.66;5016440;28;20026;-77
2022/01/17 11:18:01;;;;;;;18.77;4.00;;;;;;;7.55;65.11;100916.44;4998929;28;20088;-77
2022/01/17 11:20:28;;;;;;;27.20;4.47;;;;;;;7.63;65.52;100962.72;4997780;28;20072;-77
2022/01/17 11:22:58;;;;;;;29.90;5.70;;;;;;;8.23;64.24;100963.44;5014761;28;20034;-76
2022/01/17 11:25:31;;;;;;;20.40;5.03;;;;;;;7.95;63.94;100893.34;5020958;28;20096;-75
2022/01/17 11:27:57;;;;;;;22.40;3.92;;;;;;;7.51;64.18;100822.03;5001770;28;20045;-76
2022/01/17 11:30:23;;;;;;;27.92;4.63;;;;;;;7.09;64.36;100779.00;5003057;28;20029;-76
2022/01/17 11:32:50;;;;;;;26.08;5.00;;;;;;;7.10;65.13;100853.22;4996340;28;20045;-75
2022/01/17 11:35:17;;;;;;;26.67;4.38;;;;;;;6.95;64.91;100812.09;4999759;28;20049;-77
2022/01/17 11:37:46;;;;;;;20.77;4.40;;;;;;;7.40;65.87;101034.72;5007941;28;20049;-77
2022/01/17 11:40:14;;;;;;;28.52;5.40;;;;;;;7.34;64.89;100934.31;5007544;28;20040;-76
2022/01/17 11:42:46;;;;;;;22.35;5.18;;;;;;;7.51;64.75;100962.84;4999833;28;20040;-75
2022/01/17 11:45:23;;;;;;;32.72;5.30;;;;;;;7.37;64.52;100916.31;5009028;28;20041;-77
2022/01/17 11:47:50;;;;;;;22.27;3.92;;;;;;;7.36;63.94;100887.22;4998942;28;20050;-75
2022/01/17 11:50:41;;;;;;;28.70;4.53;;;;;;;7.35;63.95;100906.75;5006601;28;20104;-77
2022/01/17 11:53:09;;;;;;;25.02;5.18;;;;;;;7.19;63.91;100884.25;5005456;28;20128;-76
2022/01/17 11:55:38;;;;;;;27.30;4.13;;;;;;;7.50;63.58;100929.31;5022448;28;20129;-77
2022/01/17 11:58:21;;;;;;;22.70;4.45;;;;;;;7.56;63.48;100928.75;5003230;28;20136;-75